Time;durP1;ratioP1;P1;durP2;ratioP2;P2;SDS_P1;SDS_P2;PMS_P1;PMS_P2;Temp;Humidity;BMP_temperature;BMP_pressure;BME280_temperature;BME280_humidity;BME280_pressure;Samples;Min_cycle;Max_cycle;Signal;HPM_P1;HPM_P2
2022/08/12 00:44:40;;;;;;;5.50;3.73;;;19.10;1.00;;;;;;5018831;28;20465;-76
2022/08/12 00:47:06;;;;;;;14.00;3.43;;;19.00;1.00;;;;;;5032703;28;20463;-74
2022/08/12 00:49:32;;;;;;;4.50;3.60;;;19.10;1.00;;;;;;5020313;28;20429;-74
2022/08/12 00:52:10;;;;;;;5.63;3.50;;;19.00;1.00;;;;;;5017225;28;20788;-74
2022/08/12 00:54:43;;;;;;;6.30;4.07;;;18.90;1.00;;;;;;5020534;28;20401;-74
2022/08/12 00:57:21;;;;;;;4.07;3.67;;;18.90;1.00;;;;;;5026710;28;20414;-74
2022/08/12 00:59:53;;;;;;;5.20;4.27;;;18.90;1.00;;;;;;5033520;28;20507;-74
2022/08/12 01:02:38;;;;;;;7.80;3.23;;;18.80;1.00;;;;;;5035526;28;20433;-74
2022/08/12 01:13:33;;;;;;;6.00;3.57;;;18.80;1.00;;;;;;5024212;28;20474;-74
2022/08/12 01:16:02;;;;;;;6.50;3.50;;;18.70;1.00;;;;;;5028440;28;20817;-74
2022/08/12 01:18:33;;;;;;;4.53;3.70;;;18.70;1.00;;;;;;5026623;28;20426;-74
2022/08/12 01:21:28;;;;;;;4.27;3.87;;;18.70;1.00;;;;;;5031710;28;20440;-74
2022/08/12 01:24:32;;;;;;;7.93;3.73;;;18.70;1.00;;;;;;5016774;28;20433;-74
2022/08/12 01:27:02;;;;;;;5.73;3.80;;;18.60;1.00;;;;;;5021428;28;20425;-74
2022/08/12 01:29:30;;;;;;;5.30;3.70;;;18.60;1.00;;;;;;5035169;28;20402;-74
2022/08/12 01:32:03;;;;;;;17.93;3.80;;;18.60;1.00;;;;;;5026585;28;20908;-76
2022/08/12 01:34:44;;;;;;;8.97;3.80;;;18.60;1.00;;;;;;5034586;28;20421;-76
2022/08/12 01:37:13;;;;;;;6.37;3.50;;;18.50;1.00;;;;;;5031243;28;20422;-76
2022/08/12 01:39:48;;;;;;;5.50;3.43;;;18.50;1.00;;;;;;5025146;28;20533;-77
2022/08/12 01:42:20;;;;;;;4.43;3.70;;;18.40;1.00;;;;;;5030300;28;20518;-78
2022/08/12 01:45:04;;;;;;;10.23;3.80;;;18.50;1.00;;;;;;5025232;28;20763;-77
2022/08/12 01:47:52;;;;;;;11.13;3.87;;;18.40;1.00;;;;;;5015809;28;20492;-74
2022/08/12 01:50:43;;;;;;;4.67;3.57;;;18.40;1.00;;;;;;5017608;28;20413;-74
2022/08/12 01:53:12;;;;;;;4.90;3.80;;;18.30;1.00;;;;;;5015124;28;20435;-74
2022/08/12 01:55:44;;;;;;;4.93;3.60;;;18.30;1.00;;;;;;5027761;28;20465;-74
2022/08/12 01:58:27;;;;;;;7.70;3.47;;;18.30;1.00;;;;;;5032795;28;20419;-74
2022/08/12 02:01:03;;;;;;;8.23;3.77;;;18.20;1.00;;;;;;5029854;28;20500;-74
2022/08/12 02:12:57;;;;;;;5.83;3.40;;;18.10;1.00;;;;;;5029502;28;20471;-74
2022/08/12 02:15:43;;;;;;;7.93;3.67;;;18.10;1.00;;;;;;5020588;28;20495;-74
2022/08/12 02:18:29;;;;;;;8.30;3.60;;;18.00;1.00;;;;;;5015461;28;20401;-77
2022/08/12 02:21:06;;;;;;;7.10;3.83;;;18.00;1.00;;;;;;5033190;28;20429;-77
2022/08/12 02:23:35;;;;;;;6.50;4.00;;;17.90;1.00;;;;;;5020597;28;20409;-77
2022/08/12 02:26:14;;;;;;;5.40;3.33;;;17.90;1.00;;;;;;5033233;28;20574;-77
2022/08/12 02:28:40;;;;;;;4.40;3.40;;;17.90;1.00;;;;;;5033187;28;20978;-78
2022/08/12 02:31:23;;;;;;;6.67;3.27;;;17.80;1.00;;;;;;5033094;28;20429;-77
2022/08/12 02:33:50;;;;;;;4.30;3.73;;;17.80;1.00;;;;;;5017890;28;20458;-74
2022/08/12 02:36:17;;;;;;;7.03;3.83;;;17.80;1.00;;;;;;5020202;28;20520;-74
2022/08/12 02:38:43;;;;;;;9.90;4.03;;;17.70;1.00;;;;;;5024122;28;20840;-74
2022/08/12 02:41:20;;;;;;;12.10;3.93;;;17.70;1.00;;;;;;5028368;28;20432;-74
2022/08/12 02:43:50;;;;;;;13.90;4.43;;;17.70;1.00;;;;;;5015271;28;20394;-75
2022/08/12 02:46:30;;;;;;;8.67;4.00;;;17.60;1.00;;;;;;5030803;28;20439;-75
2022/08/12 02:49:20;;;;;;;7.83;3.67;;;17.60;1.00;;;;;;5021021;28;20875;-75
2022/08/12 02:51:51;;;;;;;5.50;3.90;;;17.60;1.00;;;;;;5017965;28;20544;-75
2022/08/12 02:54:22;;;;;;;20.67;4.00;;;17.60;1.00;;;;;;5029377;28;20392;-74
2022/08/12 02:56:53;;;;;;;7.57;4.40;;;17.60;1.00;;;;;;5023912;28;20417;-74
2022/08/12 02:59:25;;;;;;;10.27;4.00;;;17.50;1.00;;;;;;5021263;28;20969;-74
2022/08/12 03:02:11;;;;;;;6.10;3.90;;;17.50;1.00;;;;;;5018955;28;20420;-74
2022/08/12 03:04:45;;;;;;;4.20;3.57;;;17.50;1.00;;;;;;5014859;28;20420;-75
2022/08/12 03:07:27;;;;;;;4.73;3.63;;;17.50;1.00;;;;;;5025394;28;20396;-75
2022/08/12 03:10:01;;;;;;;6.70;3.80;;;17.40;1.00;;;;;;5023920;28;20431;-75
2022/08/12 03:12:29;;;;;;;10.07;3.67;;;17.40;1.00;;;;;;5029340;28;20475;-74
2022/08/12 03:14:57;;;;;;;3.83;3.43;;;17.40;1.00;;;;;;5020378;28;20411;-74
2022/08/12 03:17:42;;;;;;;6.83;3.70;;;17.40;1.00;;;;;;5027750;28;20502;-74
2022/08/12 03:20:10;;;;;;;8.60;3.43;;;17.30;1.00;;;;;;5030693;28;20427;-74
2022/08/12 03:22:52;;;;;;;8.60;4.10;;;17.30;1.00;;;;;;5013692;28;20384;-74
2022/08/12 03:25:26;;;;;;;8.63;3.60;;;17.30;1.00;;;;;;5021778;28;20414;-74
2022/08/12 03:27:57;;;;;;;6.37;3.80;;;17.20;1.00;;;;;;5026144;28;21025;-74
2022/08/12 03:30:30;;;;;;;7.97;3.40;;;17.20;1.00;;;;;;5027353;28;20431;-74
2022/08/12 03:33:00;;;;;;;6.70;3.83;;;17.10;1.00;;;;;;5029387;28;20482;-76
2022/08/12 03:35:31;;;;;;;6.60;3.50;;;17.10;1.00;;;;;;5026231;28;20404;-75
2022/08/12 03:38:05;;;;;;;7.57;3.70;;;17.10;1.00;;;;;;5021736;28;20417;-74
2022/08/12 04:00:24;;;;;;;8.60;4.17;;;16.80;1.00;;;;;;5035582;28;20458;-74
2022/08/12 04:03:00;;;;;;;9.50;3.50;;;16.80;1.00;;;;;;5029157;28;20379;-74
2022/08/12 04:05:57;;;;;;;9.43;3.77;;;16.80;1.00;;;;;;5035222;28;21070;-77
2022/08/12 04:08:26;;;;;;;3.83;3.37;;;16.70;1.00;;;;;;5032977;28;20408;-77
2022/08/12 04:14:20;;;;;;;6.13;3.53;;;16.70;1.00;;;;;;5032924;28;20395;-77
2022/08/12 04:16:52;;;;;;;8.40;3.70;;;16.70;1.00;;;;;;5030116;28;20436;-77
2022/08/12 04:19:19;;;;;;;6.90;4.00;;;16.70;1.00;;;;;;5033662;28;20514;-74
2022/08/12 04:21:45;;;;;;;10.47;3.93;;;16.70;1.00;;;;;;5020665;28;20388;-74
2022/08/12 04:24:17;;;;;;;7.63;3.30;;;16.70;1.00;;;;;;5034018;28;20513;-74
2022/08/12 04:26:42;;;;;;;18.70;4.10;;;16.70;1.00;;;;;;5028811;28;20929;-75
2022/08/12 04:29:09;;;;;;;10.73;3.90;;;16.70;1.00;;;;;;5020294;28;20422;-75
2022/08/12 04:31:42;;;;;;;7.67;3.40;;;16.70;1.00;;;;;;5017758;28;20192;-74
2022/08/12 04:34:10;;;;;;;6.50;4.00;;;16.70;1.00;;;;;;5020802;28;20875;-77
2022/08/12 04:36:40;;;;;;;6.80;4.03;;;16.70;1.00;;;;;;5025352;28;20511;-77
2022/08/12 04:39:12;;;;;;;14.33;3.90;;;16.70;1.00;;;;;;5018131;28;20853;-77
2022/08/12 04:41:38;;;;;;;4.40;3.47;;;16.70;1.00;;;;;;5024445;28;20431;-77
2022/08/12 04:44:21;;;;;;;14.73;3.87;;;16.80;1.00;;;;;;5018159;28;20519;-77
2022/08/12 04:47:05;;;;;;;7.07;3.40;;;16.80;1.00;;;;;;5016818;28;20427;-80
2022/08/12 04:50:15;;;;;;;5.73;4.60;;;16.80;1.00;;;;;;5034532;28;20878;-80
2022/08/12 04:53:05;;;;;;;8.17;4.00;;;16.80;1.00;;;;;;5023023;28;20383;-80
2022/08/12 04:55:41;;;;;;;5.60;3.67;;;16.80;1.00;;;;;;5029580;28;20418;-81
2022/08/12 04:58:21;;;;;;;4.27;3.53;;;16.80;1.00;;;;;;5018111;28;20427;-79
2022/08/12 05:01:09;;;;;;;6.63;3.80;;;16.90;1.00;;;;;;5023716;28;20484;-80
2022/08/12 05:04:21;;;;;;;13.53;3.90;;;16.90;1.00;;;;;;5034185;28;21183;-80
2022/08/12 05:07:15;;;;;;;6.30;3.00;;;16.90;1.00;;;;;;5022999;28;20473;-80
2022/08/12 05:09:40;;;;;;;11.53;4.53;;;17.00;1.00;;;;;;5020688;28;20414;-80
2022/08/12 05:12:07;;;;;;;16.73;4.30;;;17.00;1.00;;;;;;5014479;28;20916;-84
2022/08/12 05:14:51;;;;;;;8.07;4.00;;;17.00;1.00;;;;;;5016317;28;20807;-85
2022/08/12 05:17:17;;;;;;;5.30;3.37;;;17.00;1.00;;;;;;5019117;28;20844;-76
2022/08/12 05:19:45;;;;;;;9.80;4.03;;;17.20;1.00;;;;;;5016894;28;20545;-76
2022/08/12 05:22:11;;;;;;;5.67;3.97;;;17.20;1.00;;;;;;5024180;28;20211;-76
2022/08/12 05:24:36;;;;;;;5.83;3.43;;;17.30;1.00;;;;;;5028752;28;20457;-76
2022/08/12 05:27:16;;;;;;;3.87;3.57;;;17.30;1.00;;;;;;5026270;28;20280;-76
2022/08/12 05:29:48;;;;;;;13.20;4.10;;;17.40;1.00;;;;;;5022022;28;20270;-76
2022/08/12 05:32:19;;;;;;;15.17;3.87;;;17.40;1.00;;;;;;5021268;28;20921;-76
2022/08/12 05:34:47;;;;;;;5.63;3.70;;;17.50;1.00;;;;;;5015634;28;20459;-76
2022/08/12 05:37:15;;;;;;;10.60;3.60;;;17.60;1.00;;;;;;5027754;28;20427;-75
2022/08/12 05:39:45;;;;;;;9.30;3.67;;;17.70;1.00;;;;;;5022984;28;20813;-76
2022/08/12 05:42:27;;;;;;;6.83;3.70;;;17.80;1.00;;;;;;5021459;28;20947;-76
2022/08/12 05:45:04;;;;;;;13.47;3.77;;;17.90;1.00;;;;;;5034876;28;20531;-76
2022/08/12 05:47:33;;;;;;;9.23;3.70;;;18.10;1.00;;;;;;5029823;28;20504;-76
2022/08/12 05:50:04;;;;;;;15.27;3.67;;;18.20;1.00;;;;;;5027516;28;20412;-92
2022/08/12 05:52:33;;;;;;;7.07;3.13;;;18.30;1.00;;;;;;5020392;28;20428;-91
2022/08/12 06:02:27;;;;;;;6.87;3.70;;;18.80;1.00;;;;;;5023704;28;20444;-91
2022/08/12 06:04:59;;;;;;;8.87;3.70;;;19.00;1.00;;;;;;5028041;28;20440;-80
2022/08/12 06:07:58;;;;;;;23.40;3.77;;;19.20;1.00;;;;;;5018424;28;20804;-79
2022/08/12 06:10:24;;;;;;;10.27;3.50;;;19.40;1.00;;;;;;5014314;28;20521;-78
2022/08/12 06:13:04;;;;;;;3.53;2.97;;;19.60;1.00;;;;;;5026493;28;20480;-81
2022/08/12 06:15:45;;;;;;;5.40;2.73;;;19.80;1.00;;;;;;5022422;28;20190;-81
2022/08/12 06:18:40;;;;;;;6.47;3.10;;;20.00;1.00;;;;;;5017513;28;20738;-80
2022/08/12 06:21:17;;;;;;;10.43;3.40;;;20.20;1.00;;;;;;5028841;28;20998;-81
2022/08/12 06:24:23;;;;;;;7.43;3.07;;;20.30;1.00;;;;;;5026624;28;20420;-81
2022/08/12 06:33:34;;;;;;;4.67;2.97;;;20.90;1.00;;;;;;5024026;28;20488;-80
2022/08/12 06:36:04;;;;;;;3.10;2.37;;;21.10;1.00;;;;;;5032509;28;20421;-80
2022/08/12 06:38:30;;;;;;;4.47;2.80;;;21.30;1.00;;;;;;5028553;28;20423;-80
2022/08/12 06:44:19;;;;;;;5.60;3.07;;;21.60;1.00;;;;;;5015722;28;20309;-80
2022/08/12 06:46:45;;;;;;;4.00;2.80;;;21.70;1.00;;;;;;5023088;28;20441;-80
2022/08/12 06:49:15;;;;;;;5.70;2.70;;;21.80;1.00;;;;;;5024372;28;20432;-80
2022/08/12 06:51:45;;;;;;;2.70;2.50;;;22.00;1.00;;;;;;5020663;28;20433;-80
2022/08/12 06:54:23;;;;;;;4.80;2.63;;;22.20;1.00;;;;;;5025881;28;20913;-81
2022/08/12 06:56:51;;;;;;;2.93;2.50;;;22.30;1.00;;;;;;5013876;28;21393;-79
2022/08/12 06:59:34;;;;;;;4.83;2.93;;;22.40;1.00;;;;;;5013865;28;20452;-79
2022/08/12 07:02:21;;;;;;;3.67;2.97;;;22.60;1.00;;;;;;5027182;28;20396;-78
2022/08/12 07:05:03;;;;;;;9.30;3.00;;;22.80;1.00;;;;;;5027048;28;20384;-78
2022/08/12 07:07:37;;;;;;;5.13;2.40;;;22.90;1.00;;;;;;5019959;28;20437;-79
2022/08/12 07:10:22;;;;;;;3.60;2.80;;;23.00;1.00;;;;;;5032194;28;20407;-79
2022/08/12 07:13:00;;;;;;;7.33;2.40;;;23.20;1.00;;;;;;5032898;28;20395;-79
2022/08/12 07:15:28;;;;;;;5.80;2.40;;;23.30;1.00;;;;;;5022240;28;20410;-78
2022/08/12 07:18:16;;;;;;;2.63;2.43;;;23.40;1.00;;;;;;5031000;28;20922;-86
2022/08/12 07:27:41;;;;;;;7.90;2.10;;;23.80;1.00;;;;;;5014233;28;20496;-86
2022/08/12 07:30:29;;;;;;;8.53;2.67;;;23.90;1.00;;;;;;5023580;28;20835;-82
2022/08/12 07:33:00;;;;;;;7.03;2.50;;;24.10;1.00;;;;;;5033947;28;20772;-88
2022/08/12 07:35:52;;;;;;;4.10;2.57;;;24.20;1.00;;;;;;5022182;28;20413;-82
2022/08/12 07:38:51;;;;;;;5.07;2.43;;;24.30;1.00;;;;;;5032692;28;20463;-82
2022/08/12 07:44:38;;;;;;;12.00;2.80;;;24.60;1.00;;;;;;5027084;28;20393;-79
2022/08/12 07:47:11;;;;;;;2.20;2.00;;;24.70;1.00;;;;;;5014782;28;20433;-78
2022/08/12 07:49:45;;;;;;;3.17;2.70;;;24.80;1.00;;;;;;5022780;28;20191;-80
2022/08/12 07:52:15;;;;;;;2.80;2.13;;;24.90;1.00;;;;;;5022561;28;20427;-82
2022/08/12 07:54:51;;;;;;;2.50;2.30;;;25.10;1.00;;;;;;5024337;28;20409;-85
2022/08/12 07:57:54;;;;;;;6.40;2.13;;;25.20;1.00;;;;;;5031253;28;20419;-85
2022/08/12 08:00:20;;;;;;;2.50;2.30;;;25.40;1.00;;;;;;5027089;28;20468;-81
2022/08/12 08:06:11;;;;;;;8.40;2.20;;;25.70;1.00;;;;;;5026129;28;20192;-81
2022/08/12 08:08:40;;;;;;;6.60;2.80;;;25.80;1.00;;;;;;5020732;28;20480;-80
2022/08/12 08:17:33;;;;;;;4.70;2.70;;;26.10;1.00;;;;;;5026806;28;20808;-81
2022/08/12 08:20:11;;;;;;;2.70;2.33;;;26.20;1.00;;;;;;5016480;28;20454;-82
2022/08/12 08:22:37;;;;;;;5.47;2.73;;;26.30;1.00;;;;;;5031571;28;20202;-81
2022/08/12 08:25:10;;;;;;;3.83;1.87;;;26.40;1.00;;;;;;5018963;28;20426;-78
2022/08/12 08:27:51;;;;;;;3.57;2.13;;;26.60;1.00;;;;;;5021543;28;20812;-79
2022/08/12 08:30:29;;;;;;;10.73;2.40;;;26.70;1.00;;;;;;5015196;28;20427;-81
2022/08/12 08:33:15;;;;;;;2.30;2.20;;;26.80;1.00;;;;;;5032401;28;20429;-82
2022/08/12 08:35:47;;;;;;;6.40;2.27;;;26.90;1.00;;;;;;5025902;28;20436;-82
2022/08/12 08:38:45;;;;;;;9.90;2.47;;;27.00;1.00;;;;;;5028139;28;20775;-84
2022/08/12 08:44:40;;;;;;;2.00;1.90;;;27.20;1.00;;;;;;5016858;28;20743;-84
2022/08/12 08:50:51;;;;;;;6.73;2.37;;;27.40;1.00;;;;;;5030640;28;20466;-84
2022/08/12 08:53:45;;;;;;;3.57;1.80;;;27.40;1.00;;;;;;5036007;28;20490;-83
2022/08/12 08:59:51;;;;;;;6.30;1.80;;;27.60;1.00;;;;;;5029674;28;20463;-81
2022/08/12 09:02:27;;;;;;;2.20;2.00;;;27.80;1.00;;;;;;5016146;28;20397;-82
2022/08/12 09:05:27;;;;;;;3.47;1.57;;;28.00;1.00;;;;;;5019099;28;20517;-82
2022/08/12 09:08:04;;;;;;;3.37;1.60;;;28.10;1.00;;;;;;5018405;28;20435;-80
2022/08/12 09:10:39;;;;;;;2.10;1.90;;;28.20;1.00;;;;;;5029774;28;20434;-80
2022/08/12 09:13:27;;;;;;;1.93;1.70;;;28.20;1.00;;;;;;5035380;28;20434;-81
2022/08/12 09:16:06;;;;;;;11.40;1.60;;;28.30;1.00;;;;;;5020551;28;20996;-82
2022/08/12 09:18:39;;;;;;;7.13;1.40;;;28.30;1.00;;;;;;5019788;28;20445;-79
2022/08/12 09:21:05;;;;;;;8.87;1.70;;;28.40;1.00;;;;;;5030813;28;20913;-78
2022/08/12 09:23:35;;;;;;;1.83;1.40;;;28.40;1.00;;;;;;5031993;28;20432;-81
2022/08/12 09:26:03;;;;;;;1.77;1.50;;;28.50;1.00;;;;;;5027207;28;20171;-80
2022/08/12 09:28:40;;;;;;;3.90;1.90;;;28.70;1.00;;;;;;5027037;28;20425;-78
2022/08/12 09:31:06;;;;;;;6.07;1.50;;;28.80;1.00;;;;;;5020884;28;20430;-79
2022/08/12 09:33:57;;;;;;;4.40;1.40;;;28.90;1.00;;;;;;5027301;28;20415;-79
2022/08/12 09:36:51;;;;;;;1.40;1.30;;;29.00;1.00;;;;;;5023867;28;20206;-80
2022/08/12 09:39:21;;;;;;;11.00;1.53;;;29.10;1.00;;;;;;5031897;28;20539;-83
2022/08/12 09:45:19;;;;;;;1.50;1.40;;;29.10;1.00;;;;;;5029252;28;20415;-83
2022/08/12 09:48:15;;;;;;;2.13;2.03;;;29.30;1.00;;;;;;5024907;28;20477;-83
2022/08/12 09:50:52;;;;;;;5.77;1.90;;;29.30;1.00;;;;;;5030684;28;20417;-81
2022/08/12 09:53:33;;;;;;;1.90;1.80;;;29.30;1.00;;;;;;5021500;28;20428;-79
2022/08/12 09:56:30;;;;;;;1.63;1.53;;;29.40;1.00;;;;;;5025505;28;20767;-82
2022/08/12 09:59:22;;;;;;;5.17;1.50;;;29.50;1.00;;;;;;5019134;28;20456;-78
2022/08/12 10:01:52;;;;;;;7.37;1.50;;;29.70;1.00;;;;;;5019996;28;20414;-81
2022/08/12 10:04:17;;;;;;;3.53;1.90;;;29.80;1.00;;;;;;5015873;28;20414;-80
2022/08/12 10:06:43;;;;;;;4.93;1.80;;;29.70;1.00;;;;;;5018997;28;20412;-83
2022/08/12 10:09:10;;;;;;;3.67;1.70;;;29.80;1.00;;;;;;5034950;28;20174;-83
2022/08/12 10:14:49;;;;;;;6.00;1.70;;;29.80;1.00;;;;;;5016756;28;20429;-83
2022/08/12 10:20:45;;;;;;;6.33;1.70;;;29.90;1.00;;;;;;5023506;28;20213;-81
2022/08/12 10:23:33;;;;;;;3.27;1.53;;;29.90;1.00;;;;;;5013892;28;20954;-80
2022/08/12 10:31:40;;;;;;;2.80;1.63;;;30.10;1.00;;;;;;5026767;28;20418;-77
2022/08/12 10:34:18;;;;;;;1.87;1.77;;;30.20;1.00;;;;;;5025588;28;20426;-79
2022/08/12 10:36:48;;;;;;;2.80;1.50;;;30.30;1.00;;;;;;5018940;28;20496;-81
2022/08/12 10:39:36;;;;;;;11.40;1.90;;;30.40;1.00;;;;;;5014906;28;20458;-83
2022/08/12 10:44:52;;;;;;;1.43;1.33;;;30.60;1.00;;;;;;5032162;28;20406;-79
2022/08/12 10:47:31;;;;;;;4.97;1.80;;;30.60;1.00;;;;;;5031832;28;20885;-80
2022/08/12 10:49:58;;;;;;;4.17;1.77;;;30.60;1.00;;;;;;5029105;28;20430;-82
2022/08/12 10:52:25;;;;;;;2.87;1.60;;;30.80;1.00;;;;;;5017765;28;20472;-82
2022/08/12 10:54:58;;;;;;;1.50;1.40;;;30.90;1.00;;;;;;5034030;28;20396;-80
2022/08/12 10:57:25;;;;;;;1.70;1.60;;;30.90;1.00;;;;;;5033750;28;20479;-80
2022/08/12 10:59:58;;;;;;;1.30;1.20;;;30.90;1.00;;;;;;5022085;28;20503;-80
2022/08/12 11:02:53;;;;;;;3.93;1.50;;;30.90;1.00;;;;;;5018124;28;20431;-79
2022/08/12 11:05:19;;;;;;;1.50;1.40;;;31.00;1.00;;;;;;5028945;28;20431;-79
2022/08/12 11:07:47;;;;;;;1.20;1.10;;;31.00;1.00;;;;;;5024095;28;20437;-77
2022/08/12 11:10:13;;;;;;;1.37;1.00;;;31.10;1.00;;;;;;5017358;28;20428;-77
2022/08/12 11:12:44;;;;;;;5.93;1.27;;;31.30;1.00;;;;;;5015072;28;20432;-77
2022/08/12 11:15:10;;;;;;;5.00;1.37;;;31.40;1.00;;;;;;5028370;28;20172;-76
2022/08/12 11:17:36;;;;;;;1.73;1.40;;;31.40;1.00;;;;;;5024263;28;20420;-78
2022/08/12 11:20:04;;;;;;;1.63;1.53;;;31.30;1.00;;;;;;5026549;28;20267;-77
2022/08/12 11:22:29;;;;;;;2.50;1.67;;;31.30;1.00;;;;;;5028387;28;20183;-77
2022/08/12 11:24:55;;;;;;;5.93;1.40;;;31.50;1.00;;;;;;5026463;28;20412;-77
2022/08/12 11:27:21;;;;;;;4.63;1.63;;;31.60;1.00;;;;;;5016383;28;20231;-77
2022/08/12 11:29:46;;;;;;;3.17;1.30;;;31.80;1.00;;;;;;5027751;28;20188;-77
2022/08/12 11:32:12;;;;;;;3.63;1.43;;;31.80;1.00;;;;;;5013817;28;20179;-77
2022/08/12 11:34:39;;;;;;;3.97;1.20;;;31.80;1.00;;;;;;5017774;28;20166;-77
2022/08/12 11:37:23;;;;;;;1.57;1.47;;;31.80;1.00;;;;;;5024949;28;20181;-78
2022/08/12 11:39:48;;;;;;;1.53;1.37;;;31.90;1.00;;;;;;5026793;28;20460;-77
2022/08/12 11:42:21;;;;;;;7.17;1.43;;;31.90;1.00;;;;;;5028654;28;20417;-78
2022/08/12 11:44:51;;;;;;;3.57;1.20;;;32.00;1.00;;;;;;5031958;28;20259;-77
2022/08/12 11:47:17;;;;;;;3.33;1.10;;;31.90;1.00;;;;;;5031375;28;20891;-77
2022/08/12 11:49:51;;;;;;;6.90;1.70;;;31.90;1.00;;;;;;5035855;28;20426;-77
2022/08/12 11:52:27;;;;;;;1.43;1.00;;;32.10;1.00;;;;;;5034671;28;20740;-78
2022/08/12 11:54:53;;;;;;;2.50;1.40;;;31.90;1.00;;;;;;5028342;28;20782;-78
2022/08/12 11:57:21;;;;;;;1.20;1.20;;;31.90;1.00;;;;;;5029416;28;20426;-79
2022/08/12 12:00:16;;;;;;;1.50;1.30;;;32.00;1.00;;;;;;5024690;28;20667;-77
2022/08/12 12:02:51;;;;;;;8.13;1.30;;;32.10;1.00;;;;;;5019674;28;20473;-77
2022/08/12 12:05:27;;;;;;;4.60;1.20;;;32.20;1.00;;;;;;5025085;28;20419;-78
2022/08/12 12:07:57;;;;;;;1.20;1.10;;;32.30;1.00;;;;;;5028113;28;20786;-78
2022/08/12 12:10:27;;;;;;;3.13;1.20;;;32.20;1.00;;;;;;5022498;28;20910;-77
2022/08/12 12:12:53;;;;;;;7.03;1.37;;;32.20;1.00;;;;;;5026982;28;20407;-77
2022/08/12 12:15:19;;;;;;;1.67;1.10;;;32.20;1.00;;;;;;5020820;28;20427;-78
2022/08/12 12:17:57;;;;;;;1.50;1.20;;;32.10;1.00;;;;;;5017199;28;20240;-78
2022/08/12 12:20:27;;;;;;;1.70;1.40;;;32.10;1.00;;;;;;5022305;28;20188;-77
2022/08/12 12:23:03;;;;;;;1.63;1.40;;;32.10;1.00;;;;;;5025417;28;20438;-78
2022/08/12 12:25:51;;;;;;;2.13;1.20;;;32.10;1.00;;;;;;5028819;28;20506;-77
2022/08/12 12:28:22;;;;;;;3.23;1.20;;;32.10;1.00;;;;;;5027673;28;20923;-77
2022/08/12 12:30:58;;;;;;;6.03;1.30;;;32.20;1.00;;;;;;5025274;28;20420;-77
2022/08/12 12:33:24;;;;;;;4.80;1.03;;;32.30;1.00;;;;;;5018395;28;20407;-78
2022/08/12 12:35:49;;;;;;;2.07;1.40;;;32.30;1.00;;;;;;5021156;28;20406;-77
2022/08/12 12:38:22;;;;;;;6.87;1.17;;;32.40;1.00;;;;;;5019569;28;20259;-77
2022/08/12 12:40:48;;;;;;;8.23;1.67;;;32.60;1.00;;;;;;5031303;28;20228;-77
2022/08/12 12:43:14;;;;;;;3.80;1.20;;;32.60;1.00;;;;;;5020886;28;20412;-76
2022/08/12 12:45:41;;;;;;;2.17;1.20;;;32.60;1.00;;;;;;5022745;28;20431;-76
2022/08/12 12:48:09;;;;;;;1.57;1.17;;;32.60;1.00;;;;;;5026703;28;20418;-76
2022/08/12 12:50:40;;;;;;;7.80;1.67;;;32.60;1.00;;;;;;5029580;28;20818;-76
2022/08/12 12:53:07;;;;;;;3.10;1.27;;;32.60;1.00;;;;;;5025125;28;20466;-77
2022/08/12 12:55:36;;;;;;;3.70;1.30;;;32.50;1.00;;;;;;5030467;28;20849;-78
2022/08/12 12:58:08;;;;;;;5.83;1.40;;;32.50;1.00;;;;;;5016511;28;20432;-77
2022/08/12 13:00:43;;;;;;;7.13;1.10;;;32.60;1.00;;;;;;5028633;28;20916;-77
2022/08/12 13:03:11;;;;;;;1.43;1.00;;;32.70;1.00;;;;;;5023435;28;20504;-77
2022/08/12 13:05:38;;;;;;;3.20;1.17;;;32.80;1.00;;;;;;5023004;28;20416;-77
2022/08/12 13:08:23;;;;;;;1.27;0.90;;;32.90;1.00;;;;;;5028189;28;20463;-77
2022/08/12 13:10:49;;;;;;;2.23;1.30;;;32.90;1.00;;;;;;5033894;28;20906;-75
2022/08/12 13:13:17;;;;;;;1.10;1.00;;;33.00;1.00;;;;;;5032504;28;20882;-73
2022/08/12 13:15:43;;;;;;;2.77;1.27;;;33.10;1.00;;;;;;5030911;28;20428;-73
2022/08/12 13:18:09;;;;;;;2.40;1.00;;;33.20;1.00;;;;;;5024601;28;20430;-74
2022/08/12 13:20:35;;;;;;;1.20;1.10;;;33.30;1.00;;;;;;5020509;28;20460;-74
2022/08/12 13:23:00;;;;;;;1.00;1.00;;;33.40;1.00;;;;;;5027616;28;20411;-74
2022/08/12 13:25:26;;;;;;;3.70;1.20;;;33.40;1.00;;;;;;5021750;28;20620;-74
2022/08/12 13:27:52;;;;;;;1.23;1.13;;;33.30;1.00;;;;;;5036300;28;20177;-75
2022/08/12 13:30:20;;;;;;;3.27;1.27;;;33.40;1.00;;;;;;5045922;28;20187;-75
2022/08/12 13:32:53;;;;;;;4.10;1.20;;;33.50;1.00;;;;;;5015474;28;20180;-75
2022/08/12 13:35:19;;;;;;;1.87;1.30;;;33.40;1.00;;;;;;5021695;28;20461;-74
2022/08/12 13:37:54;;;;;;;2.60;1.40;;;33.50;1.00;;;;;;5015538;28;20448;-76
2022/08/12 13:40:34;;;;;;;1.60;1.33;;;33.60;1.00;;;;;;5028435;28;20859;-76
2022/08/12 13:43:14;;;;;;;8.40;1.33;;;33.70;1.00;;;;;;5032992;28;20431;-76
2022/08/12 13:45:40;;;;;;;5.40;1.10;;;33.70;1.00;;;;;;5033328;28;20439;-76
2022/08/12 13:48:09;;;;;;;4.70;1.20;;;33.80;1.00;;;;;;5026822;28;20427;-78
2022/08/12 13:50:36;;;;;;;2.63;1.00;;;33.80;1.00;;;;;;5027529;28;20431;-76
2022/08/12 13:53:11;;;;;;;1.10;1.00;;;34.10;1.00;;;;;;5020903;28;20743;-75
2022/08/12 13:55:44;;;;;;;1.47;1.27;;;34.30;1.00;;;;;;5025955;28;20460;-76
2022/08/12 13:58:17;;;;;;;1.40;1.30;;;34.50;1.00;;;;;;5017469;28;20416;-76
2022/08/12 14:00:53;;;;;;;5.07;1.20;;;34.70;1.00;;;;;;5024434;28;20818;-79
2022/08/12 14:03:57;;;;;;;6.63;1.17;;;34.90;1.00;;;;;;5032434;28;20775;-80
2022/08/12 14:06:27;;;;;;;2.10;1.20;;;35.00;1.00;;;;;;5019107;28;20485;-79
2022/08/12 14:09:10;;;;;;;3.20;1.30;;;35.00;1.00;;;;;;5021375;28;20968;-80
2022/08/12 14:11:39;;;;;;;1.57;1.30;;;35.00;1.00;;;;;;5028109;28;20502;-72
2022/08/12 14:14:05;;;;;;;2.80;1.20;;;35.20;1.00;;;;;;5030696;28;20419;-73
2022/08/12 14:16:33;;;;;;;2.37;1.30;;;35.00;1.00;;;;;;5027740;28;21056;-73
2022/08/12 14:18:59;;;;;;;1.33;1.13;;;35.00;1.00;;;;;;5020697;28;20187;-74
2022/08/12 14:21:27;;;;;;;3.17;1.10;;;35.20;1.00;;;;;;5027192;28;21001;-72
2022/08/12 14:23:53;;;;;;;1.97;1.10;;;35.40;1.00;;;;;;5024335;28;20176;-73
2022/08/12 14:26:24;;;;;;;1.50;1.40;;;35.40;1.00;;;;;;5021607;28;20424;-79
2022/08/12 14:28:52;;;;;;;4.00;1.23;;;35.50;1.00;;;;;;5018092;28;20630;-78
2022/08/12 14:31:20;;;;;;;0.90;0.90;;;35.50;1.00;;;;;;5014938;28;20416;-78
2022/08/12 14:33:48;;;;;;;4.17;1.30;;;35.50;1.00;;;;;;5024555;28;20418;-78
2022/08/12 14:36:33;;;;;;;1.33;1.20;;;35.60;1.00;;;;;;5024076;28;20412;-78
2022/08/12 14:39:01;;;;;;;4.53;0.97;;;35.90;1.00;;;;;;5017023;28;20423;-78
2022/08/12 14:41:27;;;;;;;2.30;1.10;;;35.90;1.00;;;;;;5019318;28;20929;-79
2022/08/12 14:44:16;;;;;;;1.57;1.10;;;35.50;1.00;;;;;;5023371;28;20426;-78
2022/08/12 14:46:45;;;;;;;2.30;1.10;;;35.20;1.00;;;;;;5026531;28;20505;-78
2022/08/12 14:49:16;;;;;;;3.37;1.10;;;35.10;1.00;;;;;;5018747;28;20483;-79
2022/08/12 14:51:42;;;;;;;10.80;1.27;;;34.90;1.00;;;;;;5013662;28;20447;-78
2022/08/12 14:54:19;;;;;;;1.83;1.00;;;34.70;1.00;;;;;;5028143;28;20403;-78
2022/08/12 14:56:50;;;;;;;1.83;1.33;;;34.60;1.00;;;;;;5030419;28;20427;-78
2022/08/12 15:02:04;;;;;;;10.67;1.50;;;34.70;1.00;;;;;;5014240;28;20419;-78
2022/08/12 15:04:40;;;;;;;4.60;1.20;;;34.60;1.00;;;;;;5026782;28;20890;-78
2022/08/12 15:07:15;;;;;;;1.37;1.20;;;34.50;1.00;;;;;;5027597;28;20496;-79
2022/08/12 15:10:04;;;;;;;7.53;1.40;;;34.40;1.00;;;;;;5032199;28;20458;-79
2022/08/12 15:12:49;;;;;;;9.63;1.90;;;34.10;1.00;;;;;;5014016;28;20443;-78
2022/08/12 15:15:16;;;;;;;2.30;1.10;;;33.70;1.00;;;;;;5017474;28;20442;-78
2022/08/12 15:17:59;;;;;;;1.80;1.23;;;33.60;1.00;;;;;;5026973;28;20945;-79
2022/08/12 15:20:35;;;;;;;4.00;1.20;;;34.00;1.00;;;;;;5015584;28;20448;-78
2022/08/12 15:23:17;;;;;;;4.50;1.20;;;34.40;1.00;;;;;;5027862;28;20771;-79
2022/08/12 15:25:44;;;;;;;1.07;0.97;;;35.20;1.00;;;;;;5020689;28;20891;-79
2022/08/12 15:28:10;;;;;;;3.63;1.30;;;37.10;1.00;;;;;;5029164;28;20422;-74
2022/08/12 15:30:38;;;;;;;2.93;1.00;;;39.20;1.00;;;;;;5037719;28;20419;-72
2022/08/12 15:33:10;;;;;;;1.43;1.10;;;40.80;1.00;;;;;;5037047;28;20188;-75
2022/08/12 15:35:38;;;;;;;2.70;0.80;;;42.20;1.00;;;;;;5039902;28;20411;-81
2022/08/12 15:38:12;;;;;;;0.83;0.80;;;42.00;1.00;;;;;;5039559;28;20470;-82
2022/08/12 15:40:54;;;;;;;1.20;1.10;;;41.70;1.00;;;;;;5039051;28;20986;-81
2022/08/12 15:43:34;;;;;;;1.40;0.90;;;41.00;1.00;;;;;;5034831;28;20396;-81
2022/08/12 15:46:10;;;;;;;2.30;1.00;;;40.10;1.00;;;;;;5023156;28;20490;-82
2022/08/12 15:48:35;;;;;;;2.43;0.83;;;39.10;1.00;;;;;;5029670;28;20420;-73
2022/08/12 15:51:04;;;;;;;1.20;1.07;;;38.30;1.00;;;;;;5032133;28;20432;-77
2022/08/12 15:56:15;;;;;;;1.50;0.93;;;38.70;1.00;;;;;;5033621;28;20414;-74
2022/08/12 15:58:41;;;;;;;2.07;1.00;;;39.40;1.00;;;;;;5026312;28;20427;-75
2022/08/12 16:01:13;;;;;;;1.30;0.90;;;39.90;1.00;;;;;;5023280;28;20505;-79
2022/08/12 16:03:39;;;;;;;1.00;0.80;;;41.40;1.00;;;;;;5022040;28;20830;-77
2022/08/12 16:06:05;;;;;;;1.47;0.70;;;42.10;1.00;;;;;;5033818;28;20427;-77
2022/08/12 16:08:40;;;;;;;4.10;1.10;;;41.70;1.00;;;;;;5040132;28;20462;-77